Time;durP1;ratioP1;P1;durP2;ratioP2;P2;SDS_P1;SDS_P2;PMS_P1;PMS_P2;Temp;Humidity;BMP_temperature;BMP_pressure;BME280_temperature;BME280_humidity;BME280_pressure;Samples;Min_cycle;Max_cycle;Signal;HPM_P1;HPM_P2
2023/01/17 00:02:29;;;;;;;5.25;2.40;;;;;;;3.83;68.69;97586.47;7400869;19;20082;-71
2023/01/17 00:10:21;;;;;;;4.03;2.60;;;;;;;3.70;68.89;97577.53;7402374;19;20066;-71
2023/01/17 00:12:51;;;;;;;4.30;2.53;;;;;;;3.65;69.05;97575.19;7399756;19;20099;-71
2023/01/17 00:15:22;;;;;;;3.55;2.55;;;;;;;3.62;69.25;97583.06;7399943;19;20035;-72
2023/01/17 00:17:52;;;;;;;4.53;2.38;;;;;;;3.59;69.18;97578.88;7399599;19;20549;-71
2023/01/17 01:34:28;;;;;;;2.13;1.67;;;;;;;3.99;68.62;97537.31;7395902;19;20046;-71
2023/01/17 01:36:59;;;;;;;2.53;1.80;;;;;;;3.95;68.44;97528.00;7396964;19;20023;-70
2023/01/17 01:39:28;;;;;;;2.15;1.60;;;;;;;3.94;69.07;97528.91;7396883;19;20070;-71
2023/01/17 01:41:56;;;;;;;2.25;1.70;;;;;;;3.90;68.97;97532.56;7396704;19;20078;-70
2023/01/17 01:44:49;;;;;;;2.28;1.60;;;;;;;3.88;68.94;97535.22;7395070;19;20469;-72
2023/01/17 01:47:24;;;;;;;2.83;1.80;;;;;;;3.86;69.31;97528.44;7397345;19;20094;-71
2023/01/17 01:49:52;;;;;;;2.75;1.52;;;;;;;3.84;69.57;97525.91;7397311;19;20075;-71
2023/01/17 01:52:26;;;;;;;2.60;1.75;;;;;;;3.84;69.73;97540.63;7396784;19;20026;-71
2023/01/17 01:55:00;;;;;;;3.15;1.42;;;;;;;3.82;69.57;97534.69;7395137;19;20085;-71
2023/01/17 01:57:31;;;;;;;2.15;1.40;;;;;;;3.82;69.73;97540.69;7396453;19;20086;-70
2023/01/17 02:00:04;;;;;;;2.28;1.50;;;;;;;3.82;69.89;97539.88;7395980;19;20078;-71
2023/01/17 02:02:33;;;;;;;2.13;1.45;;;;;;;3.81;70.12;97543.38;7396971;19;20090;-71
2023/01/17 02:05:02;;;;;;;2.83;1.63;;;;;;;3.81;70.21;97539.00;7394588;19;20035;-71
2023/01/17 02:07:38;;;;;;;2.55;1.65;;;;;;;3.77;70.40;97542.66;7396363;19;20380;-70
2023/01/17 02:10:08;;;;;;;2.22;1.50;;;;;;;3.79;70.55;97552.97;7395884;19;20505;-71
2023/01/17 02:12:37;;;;;;;4.25;1.63;;;;;;;3.77;70.40;97555.63;7396928;19;20026;-69
2023/01/17 02:15:09;;;;;;;2.70;1.55;;;;;;;3.77;70.58;97553.03;7395674;19;20085;-69
2023/01/17 02:17:47;;;;;;;2.75;1.40;;;;;;;3.75;70.68;97547.91;7396123;19;20471;-69
2023/01/17 02:21:00;;;;;;;2.75;1.50;;;;;;;3.75;70.91;97542.72;7395381;19;20427;-68
2023/01/17 02:24:09;;;;;;;2.15;1.65;;;;;;;3.73;71.46;97551.50;7395223;19;20022;-69
2023/01/17 02:26:55;;;;;;;1.38;1.02;;;;;;;3.73;72.22;97535.94;7395446;19;20481;-68
2023/01/17 02:30:03;;;;;;;3.25;1.48;;;;;;;3.70;72.80;97539.50;7395319;19;20074;-68
2023/01/17 02:32:48;;;;;;;2.70;1.40;;;;;;;3.66;72.78;97535.34;7395787;19;20074;-68
2023/01/17 02:35:49;;;;;;;1.40;1.20;;;;;;;3.69;72.70;97544.75;7395543;19;20354;-68
2023/01/17 02:38:30;;;;;;;1.15;1.02;;;;;;;3.65;72.93;97532.84;7395816;19;20423;-68
2023/01/17 02:41:06;;;;;;;1.40;0.93;;;;;;;3.68;73.13;97541.31;7393595;19;20015;-70
2023/01/17 02:43:37;;;;;;;1.42;1.08;;;;;;;3.69;73.21;97542.16;7394103;19;20019;-69
2023/01/17 02:46:18;;;;;;;1.38;1.00;;;;;;;3.69;73.77;97537.81;7392400;19;20015;-68
2023/01/17 02:48:50;;;;;;;2.58;1.10;;;;;;;3.70;73.54;97536.06;7395338;19;20015;-68
2023/01/17 02:51:44;;;;;;;1.33;0.93;;;;;;;3.73;73.80;97535.94;7395487;19;20083;-69
2023/01/17 02:54:39;;;;;;;1.20;1.05;;;;;;;3.75;73.60;97541.88;7392723;19;20502;-69
2023/01/17 02:57:25;;;;;;;2.08;0.98;;;;;;;3.76;73.69;97540.97;7394629;19;20090;-69
2023/01/17 03:00:01;;;;;;;1.23;0.73;;;;;;;3.77;73.60;97534.88;7394655;19;20083;-69
2023/01/17 03:02:37;;;;;;;1.30;0.75;;;;;;;3.80;73.75;97552.06;7395128;19;20086;-69
2023/01/17 03:05:14;;;;;;;0.90;0.70;;;;;;;3.81;73.90;97546.78;7394445;19;20071;-69
2023/01/17 03:07:43;;;;;;;0.75;0.63;;;;;;;3.84;73.90;97553.59;7394377;19;20579;-69
2023/01/17 03:10:14;;;;;;;1.75;0.80;;;;;;;3.86;74.02;97559.56;7392673;19;20018;-69
2023/01/17 03:12:42;;;;;;;1.65;0.80;;;;;;;3.88;74.19;97565.50;7394033;19;20507;-69
2023/01/17 03:15:13;;;;;;;0.77;0.60;;;;;;;3.89;74.09;97557.66;7391883;19;20506;-68
2023/01/17 03:17:45;;;;;;;0.90;0.60;;;;;;;3.93;74.10;97555.78;7394040;19;20486;-69
2023/01/17 03:20:17;;;;;;;1.92;0.60;;;;;;;3.95;74.31;97551.34;7391793;19;20025;-69
2023/01/17 03:22:45;;;;;;;1.30;0.70;;;;;;;3.96;74.34;97553.03;7394030;19;20557;-69
2023/01/17 03:25:14;;;;;;;0.40;0.40;;;;;;;3.98;74.32;97556.41;7396559;19;20066;-69
2023/01/17 03:27:42;;;;;;;0.70;0.50;;;;;;;4.01;74.47;97566.63;7397781;19;20018;-69
2023/01/17 03:30:12;;;;;;;1.80;0.90;;;;;;;4.03;74.59;97562.22;7399554;19;20031;-69
2023/01/17 03:32:41;;;;;;;1.23;0.73;;;;;;;4.05;74.93;97560.38;7398408;19;20086;-69
2023/01/17 03:35:10;;;;;;;0.50;0.40;;;;;;;4.05;75.23;97560.38;7401126;19;20086;-69
2023/01/17 03:37:41;;;;;;;0.77;0.60;;;;;;;4.06;75.91;97575.03;7401090;19;20094;-68
2023/01/17 03:40:11;;;;;;;1.00;0.63;;;;;;;4.05;75.74;97577.72;7400083;19;20417;-68
2023/01/17 03:42:39;;;;;;;0.60;0.40;;;;;;;4.03;76.16;97569.16;7400952;19;20051;-69
2023/01/17 03:45:09;;;;;;;1.60;0.47;;;;;;;4.02;75.94;97578.69;7401367;19;20073;-68
2023/01/17 03:47:51;;;;;;;1.08;0.50;;;;;;;4.01;76.67;97576.19;7397753;19;20086;-68
2023/01/17 03:50:19;;;;;;;0.40;0.40;;;;;;;4.02;76.69;97575.25;7401332;19;20078;-68
2023/01/17 03:52:50;;;;;;;0.65;0.60;;;;;;;4.01;76.91;97582.19;7399966;19;20082;-69
2023/01/17 03:55:19;;;;;;;0.68;0.40;;;;;;;4.00;76.83;97583.09;7401281;19;20078;-68
2023/01/17 03:57:48;;;;;;;0.40;0.40;;;;;;;4.02;77.02;97591.66;7400683;19;20094;-68
2023/01/17 04:00:17;;;;;;;0.40;0.40;;;;;;;4.02;77.01;97586.47;7399356;19;20545;-68
2023/01/17 04:02:45;;;;;;;0.32;0.32;;;;;;;4.03;77.10;97598.53;7400325;19;20082;-69
2023/01/17 04:05:14;;;;;;;0.45;0.45;;;;;;;4.03;77.25;97588.16;7399796;19;20423;-68
2023/01/17 04:07:43;;;;;;;0.40;0.40;;;;;;;4.05;77.06;97588.09;7400091;19;20078;-68
2023/01/17 04:10:14;;;;;;;0.50;0.40;;;;;;;4.05;76.95;97594.09;7399657;19;20584;-69
2023/01/17 04:12:43;;;;;;;0.45;0.45;;;;;;;4.06;76.96;97589.78;7399371;19;20078;-69
2023/01/17 04:15:12;;;;;;;0.60;0.50;;;;;;;4.06;76.84;97593.19;7399669;19;20532;-69
2023/01/17 04:17:41;;;;;;;0.80;0.70;;;;;;;4.07;76.87;97605.25;7399620;19;20436;-68
2023/01/17 04:20:18;;;;;;;0.43;0.43;;;;;;;4.07;76.62;97602.66;7397056;19;20202;-71
2023/01/17 04:22:46;;;;;;;1.20;0.52;;;;;;;4.10;76.55;97616.44;7399247;19;20015;-70
2023/01/17 04:25:18;;;;;;;0.60;0.57;;;;;;;4.10;76.51;97617.25;7399792;19;20098;-70
2023/01/17 04:27:47;;;;;;;0.40;0.40;;;;;;;4.11;76.42;97623.28;7399384;19;20049;-70
2023/01/17 04:30:15;;;;;;;0.77;0.50;;;;;;;4.10;76.42;97624.22;7399472;19;20078;-70
2023/01/17 04:32:44;;;;;;;0.47;0.47;;;;;;;4.10;76.69;97626.81;7399259;19;20022;-70
2023/01/17 04:35:13;;;;;;;1.40;0.77;;;;;;;4.04;77.19;97620.97;7399291;19;20074;-69
2023/01/17 04:37:42;;;;;;;0.85;0.80;;;;;;;3.97;77.65;97635.13;7398342;19;20077;-69
2023/01/17 04:40:12;;;;;;;0.70;0.70;;;;;;;3.96;77.79;97640.41;7396838;19;20025;-70
2023/01/17 04:42:46;;;;;;;0.70;0.63;;;;;;;3.88;78.91;97646.75;7398529;19;20034;-69
2023/01/17 04:45:15;;;;;;;0.80;0.80;;;;;;;3.85;79.08;97643.44;7399403;19;20035;-69
2023/01/17 04:47:50;;;;;;;1.27;1.02;;;;;;;3.78;79.20;97657.59;7395820;19;20007;-69
2023/01/17 04:50:19;;;;;;;1.10;1.00;;;;;;;3.75;78.98;97663.75;7396089;19;20437;-70
2023/01/17 04:52:47;;;;;;;0.93;0.80;;;;;;;3.71;79.12;97657.84;7398329;19;20086;-69
2023/01/17 04:55:16;;;;;;;1.33;0.98;;;;;;;3.71;79.09;97669.97;7397628;19;20031;-69
2023/01/17 04:57:49;;;;;;;1.30;1.05;;;;;;;3.67;79.34;97663.25;7396394;19;20095;-69
2023/01/17 05:00:18;;;;;;;1.33;1.23;;;;;;;3.64;79.61;97684.13;7397397;19;20027;-70
2023/01/17 05:02:47;;;;;;;2.55;1.30;;;;;;;3.61;79.97;97682.50;7398007;19;20035;-69
2023/01/17 05:05:15;;;;;;;1.35;1.20;;;;;;;3.59;80.42;97674.78;7397611;19;20540;-69
2023/01/17 05:07:44;;;;;;;1.40;1.30;;;;;;;3.57;80.11;97673.16;7397884;19;20035;-69
2023/01/17 05:10:13;;;;;;;1.20;1.08;;;;;;;3.55;79.99;97687.94;7397498;19;20482;-68
2023/01/17 05:12:41;;;;;;;2.10;1.15;;;;;;;3.54;80.47;97696.66;7397384;19;20015;-69
2023/01/17 05:15:12;;;;;;;1.30;1.20;;;;;;;3.52;80.64;97693.25;7397826;19;20022;-68
2023/01/17 05:17:41;;;;;;;1.63;1.48;;;;;;;3.50;80.63;97695.94;7396141;19;20035;-69
2023/01/17 05:20:11;;;;;;;1.48;1.38;;;;;;;3.51;80.75;97704.53;7396814;19;20018;-68
2023/01/17 05:22:39;;;;;;;1.42;1.33;;;;;;;3.50;80.58;97705.44;7394999;19;20026;-68
2023/01/17 05:25:09;;;;;;;1.80;1.70;;;;;;;3.49;80.90;97708.94;7395560;19;20018;-68
2023/01/17 05:27:38;;;;;;;1.40;1.30;;;;;;;3.49;80.67;97707.19;7396939;19;20380;-69
2023/01/17 05:30:07;;;;;;;1.27;1.13;;;;;;;3.49;80.98;97711.50;7395471;19;20187;-68
2023/01/17 05:32:38;;;;;;;1.70;1.50;;;;;;;3.49;80.71;97732.25;7397081;19;20023;-68
2023/01/17 05:35:08;;;;;;;5.18;1.70;;;;;;;3.49;80.91;97729.66;7395579;19;20027;-69
2023/01/17 05:37:37;;;;;;;1.75;1.20;;;;;;;3.49;80.46;97734.84;7395199;19;20026;-68
2023/01/17 05:40:08;;;;;;;1.02;1.00;;;;;;;3.49;80.55;97732.25;7396172;19;20026;-68
2023/01/17 05:42:37;;;;;;;1.83;1.02;;;;;;;3.51;80.36;97733.03;7396218;19;20014;-68
2023/01/17 05:45:06;;;;;;;1.38;1.27;;;;;;;3.50;80.14;97723.56;7394650;19;20035;-69
2023/01/17 05:47:34;;;;;;;1.20;1.10;;;;;;;3.53;79.91;97742.44;7395158;19;20508;-69
2023/01/17 05:50:06;;;;;;;1.23;1.13;;;;;;;3.54;79.57;97738.94;7395174;19;20031;-69
2023/01/17 05:52:34;;;;;;;1.88;1.30;;;;;;;3.55;79.19;97753.59;7395232;19;20019;-69
2023/01/17 05:55:03;;;;;;;1.40;1.30;;;;;;;3.56;79.07;97762.22;7396579;19;20010;-69
2023/01/17 05:57:31;;;;;;;1.65;1.10;;;;;;;3.61;79.35;97752.50;7395475;19;20463;-70
2023/01/17 06:00:00;;;;;;;1.60;1.30;;;;;;;3.61;78.82;97762.88;7394238;19;20027;-68
2023/01/17 06:02:28;;;;;;;1.85;1.35;;;;;;;3.64;78.52;97757.56;7393612;19;20018;-68
2023/01/17 06:04:57;;;;;;;1.40;1.20;;;;;;;3.66;78.76;97763.50;7393853;19;20039;-68
2023/01/17 06:07:28;;;;;;;1.45;1.33;;;;;;;3.68;78.69;97771.25;7393832;19;20035;-68
2023/01/17 06:09:56;;;;;;;2.70;2.33;;;;;;;3.68;78.52;97769.50;7395516;19;20078;-70
2023/01/17 06:12:25;;;;;;;1.13;1.02;;;;;;;3.69;78.42;97784.16;7395775;19;20018;-69
2023/01/17 06:14:54;;;;;;;1.45;1.05;;;;;;;3.70;78.15;97779.78;7393977;19;20423;-69
2023/01/17 06:17:22;;;;;;;1.10;1.00;;;;;;;3.70;78.22;97775.47;7395641;19;20028;-70
2023/01/17 06:19:51;;;;;;;1.00;0.90;;;;;;;3.72;78.05;97791.78;7394477;19;20082;-68
2023/01/17 06:22:19;;;;;;;1.40;1.30;;;;;;;3.71;78.20;97784.91;7393351;19;20108;-69
2023/01/17 06:24:50;;;;;;;1.33;1.20;;;;;;;3.72;78.25;97794.38;7393028;19;20031;-69
2023/01/17 06:27:19;;;;;;;1.83;1.20;;;;;;;3.72;78.51;97793.53;7392150;19;20498;-70
2023/01/17 06:29:47;;;;;;;4.38;2.65;;;;;;;3.71;78.69;97800.47;7392906;19;20014;-68
2023/01/17 06:32:15;;;;;;;5.07;3.35;;;;;;;3.71;78.38;97794.44;7395293;19;20031;-70
2023/01/17 06:34:44;;;;;;;1.60;1.35;;;;;;;3.70;78.58;97800.53;7394252;19;20019;-69
2023/01/17 06:37:13;;;;;;;1.92;0.90;;;;;;;3.68;77.97;97808.38;7396603;19;20018;-67
2023/01/17 06:39:41;;;;;;;1.05;1.05;;;;;;;3.67;77.93;97796.31;7396113;19;20019;-70
2023/01/17 06:42:12;;;;;;;1.40;1.15;;;;;;;3.67;77.87;97798.09;7393621;19;20010;-70
2023/01/17 06:44:41;;;;;;;3.55;2.38;;;;;;;3.63;78.15;97792.16;7392777;19;20022;-68
2023/01/17 06:47:09;;;;;;;6.68;4.15;;;;;;;3.68;77.91;97803.19;7392706;19;20011;-68
2023/01/17 06:49:38;;;;;;;2.35;1.40;;;;;;;3.67;77.91;97801.50;7394300;19;20022;-70
2023/01/17 06:52:06;;;;;;;1.75;1.63;;;;;;;3.67;78.09;97819.66;7394150;19;20014;-68
2023/01/17 06:54:35;;;;;;;1.10;1.00;;;;;;;3.67;77.84;97818.81;7392891;19;20098;-69
2023/01/17 06:57:03;;;;;;;1.10;1.00;;;;;;;3.66;77.70;97819.72;7393984;19;20485;-69
2023/01/17 06:59:34;;;;;;;1.33;1.08;;;;;;;3.64;77.74;97837.09;7394009;19;20018;-70
2023/01/17 07:02:03;;;;;;;1.83;1.30;;;;;;;3.63;77.49;97825.03;7394092;19;20014;-69
2023/01/17 07:04:31;;;;;;;1.30;1.02;;;;;;;3.63;77.19;97827.59;7399130;19;20018;-69
2023/01/17 07:07:00;;;;;;;2.08;1.38;;;;;;;3.62;77.23;97839.75;7401759;19;20026;-69
2023/01/17 07:09:28;;;;;;;1.33;1.00;;;;;;;3.62;77.07;97839.75;7401539;19;20022;-69
2023/01/17 07:12:00;;;;;;;1.58;1.35;;;;;;;3.62;76.87;97847.53;7401448;19;20019;-69
2023/01/17 07:14:29;;;;;;;1.77;0.80;;;;;;;3.61;76.72;97852.78;7398988;19;20023;-69
2023/01/17 07:17:00;;;;;;;1.65;1.00;;;;;;;3.60;76.22;97851.91;7401852;19;20023;-70
2023/01/17 07:19:28;;;;;;;1.63;1.00;;;;;;;3.61;76.22;97869.16;7402153;19;20014;-71
2023/01/17 07:21:57;;;;;;;2.83;1.13;;;;;;;3.63;76.45;97872.53;7399316;19;20423;-69
2023/01/17 07:24:25;;;;;;;1.13;1.00;;;;;;;3.63;76.41;97854.41;7399283;19;20023;-69
2023/01/17 07:26:54;;;;;;;1.45;1.10;;;;;;;3.67;76.66;97862.91;7401567;19;20031;-69
2023/01/17 07:29:22;;;;;;;1.30;1.20;;;;;;;3.68;76.05;97868.03;7401954;19;20018;-69
2023/01/17 07:31:51;;;;;;;2.35;1.00;;;;;;;3.68;75.86;97860.25;7398015;19;20055;-69
2023/01/17 07:34:22;;;;;;;1.83;1.20;;;;;;;3.69;75.83;97866.25;7398403;19;20383;-69
2023/01/17 07:36:50;;;;;;;3.30;1.23;;;;;;;3.70;75.88;97870.53;7401240;19;20031;-69
2023/01/17 07:39:19;;;;;;;3.33;1.13;;;;;;;3.71;75.29;97869.66;7397485;19;20510;-69
2023/01/17 07:41:47;;;;;;;3.63;1.10;;;;;;;3.72;75.40;97876.53;7397690;19;20018;-69
2023/01/17 07:44:16;;;;;;;1.55;1.13;;;;;;;3.71;74.34;97873.06;7397865;19;20031;-69
2023/01/17 07:46:44;;;;;;;1.70;1.10;;;;;;;3.73;75.04;97886.00;7399646;19;20019;-69
2023/01/17 07:49:13;;;;;;;1.13;0.88;;;;;;;3.74;75.05;97883.34;7398039;19;20014;-70
2023/01/17 07:51:44;;;;;;;2.13;1.25;;;;;;;3.77;74.97;97884.09;7400405;19;20029;-68
2023/01/17 07:54:13;;;;;;;5.50;2.40;;;;;;;3.76;74.70;97888.47;7398153;19;20482;-68
2023/01/17 07:56:44;;;;;;;2.40;1.10;;;;;;;3.77;74.32;97897.06;7399910;19;20018;-69
2023/01/17 07:59:12;;;;;;;3.10;1.52;;;;;;;3.78;74.75;97899.63;7400192;19;20018;-69
2023/01/17 08:01:41;;;;;;;1.30;1.17;;;;;;;3.78;74.31;97901.34;7399212;19;20502;-69
2023/01/17 08:04:10;;;;;;;1.92;1.10;;;;;;;3.75;74.13;97903.19;7397900;19;20018;-69
2023/01/17 08:06:40;;;;;;;2.15;1.25;;;;;;;3.80;74.59;97899.56;7397333;19;20030;-69
2023/01/17 08:09:12;;;;;;;3.20;1.13;;;;;;;3.80;74.35;97908.16;7396959;19;20079;-69
2023/01/17 08:11:40;;;;;;;1.30;0.90;;;;;;;3.81;74.32;97903.84;7398123;19;20039;-69
2023/01/17 08:14:08;;;;;;;1.75;1.17;;;;;;;3.82;74.75;97903.78;7397007;19;20036;-69
2023/01/17 08:16:38;;;;;;;2.03;1.15;;;;;;;3.79;73.12;97909.09;7398334;19;20019;-69
2023/01/17 08:19:07;;;;;;;3.50;1.33;;;;;;;3.84;74.15;97911.50;7398733;19;20366;-69
2023/01/17 08:21:35;;;;;;;4.28;1.92;;;;;;;3.84;73.48;97917.53;7396184;19;20028;-69
2023/01/17 08:24:04;;;;;;;2.47;1.20;;;;;;;3.85;73.34;97918.38;7397423;19;20035;-69
2023/01/17 08:26:35;;;;;;;4.78;2.83;;;;;;;3.83;72.94;97910.66;7398728;19;20023;-69
2023/01/17 08:29:03;;;;;;;2.25;1.25;;;;;;;3.83;73.33;97915.84;7396751;19;20050;-69
2023/01/17 08:31:35;;;;;;;2.90;1.20;;;;;;;3.81;73.66;97914.22;7398417;19;20028;-69
2023/01/17 08:34:04;;;;;;;1.50;1.20;;;;;;;3.80;73.21;97931.50;7397027;19;20032;-69
2023/01/17 08:36:32;;;;;;;1.10;1.00;;;;;;;3.78;73.33;97932.47;7396325;19;20193;-69
2023/01/17 08:39:01;;;;;;;2.35;0.90;;;;;;;3.78;73.78;97933.34;7398840;19;20032;-69
2023/01/17 08:41:31;;;;;;;1.10;1.00;;;;;;;3.78;73.98;97927.28;7398341;19;20448;-69
2023/01/17 08:44:02;;;;;;;0.90;0.90;;;;;;;3.77;73.51;97926.47;7397575;19;20391;-69
2023/01/17 08:46:30;;;;;;;1.23;0.80;;;;;;;3.80;73.65;97935.88;7398577;19;20022;-68
2023/01/17 08:49:01;;;;;;;1.33;1.00;;;;;;;3.80;73.37;97935.88;7394898;19;20059;-71
2023/01/17 08:51:31;;;;;;;1.10;1.00;;;;;;;3.81;73.38;97942.75;7398997;19;20018;-70
2023/01/17 08:54:00;;;;;;;1.00;0.90;;;;;;;3.81;72.89;97953.13;7396467;19;20050;-69
2023/01/17 08:56:28;;;;;;;1.10;1.00;;;;;;;3.85;73.28;97939.94;7398257;19;20033;-68
2023/01/17 08:58:57;;;;;;;1.60;1.13;;;;;;;3.86;72.67;97935.63;7397906;19;20020;-69
2023/01/17 09:01:28;;;;;;;1.45;1.20;;;;;;;3.92;73.08;97956.16;7397329;19;20019;-69
2023/01/17 09:03:56;;;;;;;2.15;1.02;;;;;;;3.92;72.08;97964.75;7395685;19;20019;-69
2023/01/17 09:06:25;;;;;;;1.58;1.30;;;;;;;3.96;72.87;97959.47;7397926;19;20035;-69
2023/01/17 09:08:54;;;;;;;9.52;5.00;;;;;;;3.97;72.60;97956.81;7395147;19;20018;-69
2023/01/17 09:11:22;;;;;;;1.88;1.13;;;;;;;3.98;72.32;97963.69;7397253;19;20022;-70
2023/01/17 09:13:51;;;;;;;1.70;0.85;;;;;;;4.00;72.22;97986.97;7396697;19;20014;-70
2023/01/17 09:16:19;;;;;;;1.67;1.35;;;;;;;4.00;72.34;97963.63;7397766;19;20023;-68
2023/01/17 09:18:50;;;;;;;1.25;0.90;;;;;;;3.99;72.17;97982.69;7398812;19;20027;-69
2023/01/17 09:21:19;;;;;;;2.92;0.90;;;;;;;3.99;72.76;97983.50;7398150;19;20083;-71
2023/01/17 09:23:48;;;;;;;2.55;0.98;;;;;;;3.98;71.78;97991.34;7395766;19;20015;-71
2023/01/17 09:26:21;;;;;;;1.52;0.85;;;;;;;3.99;72.12;97993.06;7393398;19;20364;-71
2023/01/17 09:28:50;;;;;;;2.28;0.95;;;;;;;3.95;71.31;97987.13;7397760;19;20025;-69
2023/01/17 09:31:25;;;;;;;1.27;1.02;;;;;;;3.99;72.36;97999.06;7397797;19;20024;-69
2023/01/17 09:33:58;;;;;;;1.75;1.00;;;;;;;3.99;71.53;98003.44;7395720;19;20015;-70
2023/01/17 09:36:32;;;;;;;0.73;0.73;;;;;;;4.01;72.01;98006.81;7397908;19;20026;-70
2023/01/17 09:39:01;;;;;;;1.13;0.90;;;;;;;3.99;71.84;98009.44;7396503;19;20014;-69
2023/01/17 09:41:32;;;;;;;0.70;0.63;;;;;;;4.00;71.50;98015.50;7395259;19;20149;-70
2023/01/17 09:44:06;;;;;;;0.73;0.65;;;;;;;4.00;71.71;98024.13;7395179;19;20081;-72
2023/01/17 09:46:40;;;;;;;1.20;0.85;;;;;;;4.00;71.82;98023.28;7396440;19;20031;-70
2023/01/17 09:49:16;;;;;;;3.38;2.15;;;;;;;4.01;72.08;98031.00;7397119;19;20018;-71
2023/01/17 09:51:45;;;;;;;2.00;1.33;;;;;;;4.03;72.69;98036.13;7394759;19;20035;-70
2023/01/17 09:54:23;;;;;;;1.02;0.88;;;;;;;4.00;72.37;98037.09;7395200;19;20015;-70
2023/01/17 09:57:02;;;;;;;0.90;0.70;;;;;;;4.03;72.78;98051.69;7397237;19;20018;-70
2023/01/17 09:59:44;;;;;;;0.88;0.50;;;;;;;4.00;72.49;98044.88;7394504;19;20014;-69
2023/01/17 10:02:32;;;;;;;0.88;0.70;;;;;;;4.01;72.31;98041.38;7395699;19;20082;-69
2023/01/17 10:05:20;;;;;;;1.13;0.60;;;;;;;4.03;72.47;98044.78;7394126;19;20484;-71
2023/01/17 10:08:02;;;;;;;0.80;0.65;;;;;;;4.05;72.85;98042.94;7395684;19;20018;-70
2023/01/17 10:10:41;;;;;;;0.93;0.68;;;;;;;4.03;72.81;98052.56;7395589;19;20485;-71
2023/01/17 10:13:22;;;;;;;0.90;0.70;;;;;;;4.07;73.12;98055.88;7394981;19;20023;-70
2023/01/17 10:16:04;;;;;;;0.60;0.50;;;;;;;4.10;72.58;98068.72;7393908;19;20484;-69
2023/01/17 10:19:06;;;;;;;0.57;0.57;;;;;;;4.12;71.34;98081.63;7394041;19;20014;-69
2023/01/17 10:21:53;;;;;;;1.65;1.08;;;;;;;4.12;72.16;98094.59;7395549;19;20021;-70
2023/01/17 10:24:45;;;;;;;0.68;0.50;;;;;;;4.12;71.63;98086.81;7394603;19;20081;-71
2023/01/17 10:27:21;;;;;;;0.63;0.50;;;;;;;4.10;72.15;98088.66;7394959;19;20018;-70
2023/01/17 10:29:52;;;;;;;0.40;0.40;;;;;;;4.06;70.95;98082.72;7394921;19;20011;-70
2023/01/17 10:32:25;;;;;;;0.95;0.63;;;;;;;4.05;71.58;98091.41;7394188;19;20329;-69
2023/01/17 10:34:54;;;;;;;1.15;0.60;;;;;;;4.04;71.88;98097.50;7393131;19;20014;-71
2023/01/17 10:37:34;;;;;;;0.55;0.50;;;;;;;4.02;72.57;98102.75;7395146;19;20035;-70
2023/01/17 10:40:18;;;;;;;0.60;0.45;;;;;;;3.94;73.09;98104.78;7394562;19;20015;-69
2023/01/17 10:42:53;;;;;;;0.70;0.57;;;;;;;3.87;73.39;98114.53;7395403;19;20018;-70
2023/01/17 10:45:27;;;;;;;0.47;0.40;;;;;;;3.83;73.43;98119.88;7395211;19;20478;-71
2023/01/17 10:48:03;;;;;;;0.50;0.47;;;;;;;3.75;73.85;98113.25;7393100;19;20011;-67
2023/01/17 10:50:46;;;;;;;1.13;0.65;;;;;;;3.75;74.08;98109.78;7394582;19;20029;-67
2023/01/17 10:53:30;;;;;;;1.58;0.60;;;;;;;3.75;75.40;98120.16;7394146;19;20035;-66
2023/01/17 10:55:59;;;;;;;1.60;0.57;;;;;;;3.76;75.55;98114.09;7395013;19;20018;-67
2023/01/17 10:58:27;;;;;;;1.58;0.73;;;;;;;3.77;75.25;98128.75;7394340;19;20031;-67
2023/01/17 11:01:00;;;;;;;2.42;0.60;;;;;;;3.76;76.52;98114.09;7392797;19;20022;-67
2023/01/17 11:03:30;;;;;;;0.80;0.80;;;;;;;3.75;75.82;98126.22;7392330;19;20352;-67
2023/01/17 11:06:18;;;;;;;3.00;0.80;;;;;;;3.73;77.51;98130.59;7391287;19;20011;-67
2023/01/17 11:08:57;;;;;;;2.05;1.23;;;;;;;3.71;75.88;98136.75;7394283;19;20041;-67
2023/01/17 11:11:28;;;;;;;1.58;0.70;;;;;;;3.70;76.42;98122.94;7392335;19;20018;-67
2023/01/17 11:14:02;;;;;;;1.95;1.00;;;;;;;3.72;75.97;98133.25;7393203;19;20379;-68
2023/01/17 11:16:32;;;;;;;3.42;1.70;;;;;;;3.74;75.40;98119.34;7393555;19;20011;-67
2023/01/17 11:19:14;;;;;;;2.35;1.05;;;;;;;3.79;75.13;98121.78;7393828;19;20378;-67
2023/01/17 11:21:52;;;;;;;7.95;1.90;;;;;;;3.84;74.68;98127.63;7394536;19;20397;-66
2023/01/17 11:24:31;;;;;;;2.13;1.35;;;;;;;3.89;74.47;98127.44;7391365;19;20074;-67
2023/01/17 11:27:00;;;;;;;1.98;0.70;;;;;;;3.97;74.29;98140.13;7391946;19;20019;-66
2023/01/17 11:29:34;;;;;;;1.40;1.00;;;;;;;4.03;74.06;98132.13;7393355;19;20078;-68
2023/01/17 11:32:29;;;;;;;3.05;0.60;;;;;;;4.04;73.00;98126.03;7391300;19;20462;-66
2023/01/17 11:35:17;;;;;;;5.13;2.17;;;;;;;4.07;72.98;98136.31;7391239;19;20015;-68
2023/01/17 11:37:54;;;;;;;4.28;1.90;;;;;;;4.07;73.02;98131.97;7394770;19;20066;-67
2023/01/17 11:40:29;;;;;;;3.28;1.70;;;;;;;4.11;72.71;98139.63;7394087;19;20376;-67
2023/01/17 11:43:03;;;;;;;0.98;0.80;;;;;;;4.15;72.20;98136.03;7391151;19;20388;-68
2023/01/17 11:45:33;;;;;;;2.05;0.65;;;;;;;4.18;71.16;98138.50;7392738;19;20011;-67
2023/01/17 11:48:16;;;;;;;1.17;0.35;;;;;;;4.15;71.11;98133.44;7393537;19;20010;-67
2023/01/17 11:50:48;;;;;;;1.45;0.50;;;;;;;4.21;70.49;98149.63;7401085;19;20023;-68
2023/01/17 11:53:23;;;;;;;2.13;0.68;;;;;;;4.24;71.10;98153.84;7400001;19;20035;-67
2023/01/17 11:56:01;;;;;;;2.75;1.70;;;;;;;4.26;70.46;98146.84;7396662;19;20011;-67
2023/01/17 11:58:30;;;;;;;2.85;1.10;;;;;;;4.27;70.79;98145.94;7399284;19;20031;-66
2023/01/17 12:01:09;;;;;;;2.75;0.80;;;;;;;4.33;71.01;98150.06;7399533;19;20495;-65
2023/01/17 12:04:06;;;;;;;2.17;0.70;;;;;;;4.34;69.63;98144.81;7397763;19;20018;-68
2023/01/17 12:06:42;;;;;;;2.10;0.52;;;;;;;4.35;68.87;98141.31;7399432;19;20306;-68
2023/01/17 12:09:22;;;;;;;4.45;1.38;;;;;;;4.36;69.51;98148.19;7399220;19;20083;-68
2023/01/17 12:14:53;;;;;;;1.63;0.57;;;;;;;4.33;66.52;98150.06;7397390;19;20014;-67
2023/01/17 12:17:32;;;;;;;1.70;0.40;;;;;;;4.32;67.97;98146.63;7395977;19;20517;-68
2023/01/17 12:20:04;;;;;;;0.70;0.50;;;;;;;4.33;69.30;98147.47;7399309;19;20018;-69
2023/01/17 12:22:57;;;;;;;1.45;0.52;;;;;;;4.35;68.98;98156.06;7395900;19;20018;-71
2023/01/17 12:25:39;;;;;;;1.77;0.45;;;;;;;4.37;69.19;98149.91;7399193;19;20010;-70
2023/01/17 12:28:24;;;;;;;1.77;0.60;;;;;;;4.40;69.60;98148.94;7391135;19;20034;-69
2023/01/17 12:31:05;;;;;;;1.50;0.50;;;;;;;4.38;68.78;98154.16;7395927;19;20093;-68
2023/01/17 12:33:40;;;;;;;2.58;0.60;;;;;;;4.40;69.70;98154.13;7395520;19;20099;-74
2023/01/17 12:36:18;;;;;;;1.35;0.70;;;;;;;4.42;69.52;98157.47;7398026;19;20031;-68
2023/01/17 12:38:49;;;;;;;0.50;0.45;;;;;;;4.38;69.38;98159.34;7398270;19;20019;-69
2023/01/17 12:41:25;;;;;;;3.35;0.75;;;;;;;4.40;69.64;98167.94;7398748;19;20018;-67
2023/01/17 12:44:00;;;;;;;1.40;0.80;;;;;;;4.39;69.66;98165.41;7396738;19;20015;-66
2023/01/17 12:46:32;;;;;;;2.22;0.85;;;;;;;4.38;70.13;98171.50;7398147;19;20010;-68
2023/01/17 12:49:12;;;;;;;2.03;0.85;;;;;;;4.40;70.11;98177.50;7395905;19;20022;-68
2023/01/17 12:51:44;;;;;;;1.73;1.05;;;;;;;4.40;70.45;98177.50;7399019;19;20022;-68
2023/01/17 12:54:23;;;;;;;2.42;0.85;;;;;;;4.42;69.71;98173.06;7396595;19;20022;-69
2023/01/17 12:56:55;;;;;;;1.92;0.90;;;;;;;4.46;70.00;98176.41;7396405;19;20034;-69
2023/01/17 12:59:31;;;;;;;2.35;1.35;;;;;;;4.50;70.52;98177.97;7395469;19;20031;-69
2023/01/17 13:02:02;;;;;;;0.70;0.50;;;;;;;4.53;70.25;98183.88;7395277;19;20514;-70
2023/01/17 13:04:36;;;;;;;0.93;0.43;;;;;;;4.55;69.84;98183.84;7396020;19;20018;-70
2023/01/17 13:07:15;;;;;;;2.10;0.80;;;;;;;4.56;68.77;98180.31;7397681;19;20010;-69
2023/01/17 13:09:49;;;;;;;1.20;0.50;;;;;;;4.55;68.79;98186.44;7397287;19;20015;-68
2023/01/17 13:12:21;;;;;;;1.90;0.75;;;;;;;4.54;69.15;98188.19;7397133;19;20015;-69
2023/01/17 13:14:52;;;;;;;2.03;0.90;;;;;;;4.54;69.22;98187.34;7395044;19;20022;-69
2023/01/17 13:17:33;;;;;;;2.55;1.17;;;;;;;4.53;67.65;98199.47;7395428;19;20384;-68
2023/01/17 13:20:10;;;;;;;4.13;1.80;;;;;;;4.54;68.88;98195.97;7397063;19;20021;-67
2023/01/17 13:22:40;;;;;;;4.10;1.70;;;;;;;4.55;68.84;98210.66;7397460;19;20018;-67
2023/01/17 13:25:22;;;;;;;4.68;0.80;;;;;;;4.56;67.22;98212.34;7398207;19;20011;-70
2023/01/17 13:28:15;;;;;;;2.97;1.13;;;;;;;4.57;67.55;98215.78;7396525;19;20545;-72
2023/01/17 13:31:19;;;;;;;3.38;1.10;;;;;;;4.56;65.31;98227.94;7397727;19;20026;-72
2023/01/17 13:34:08;;;;;;;4.32;1.05;;;;;;;4.55;64.56;98234.03;7395236;19;20023;-70